createdAt,value
2019-04-26T00:05:38.697Z,3.57
2019-04-26T00:15:40.013Z,3.43
2019-04-26T00:25:41.333Z,3.50
2019-04-26T00:35:47.715Z,3.87
2019-04-26T00:45:43.949Z,3.70
2019-04-26T00:55:45.228Z,3.50
2019-04-26T01:05:46.507Z,3.93
2019-04-26T02:16:31.170Z,3.90
2019-04-26T02:26:32.503Z,4.03
2019-04-26T02:36:53.017Z,4.60
2019-04-26T02:46:35.784Z,4.40
2019-04-26T02:56:37.646Z,3.97
2019-04-26T03:06:39.119Z,4.43
2019-04-26T03:16:40.764Z,4.70
2019-04-26T03:26:41.585Z,4.30
2019-04-26T03:36:44.264Z,4.77
2019-04-26T03:46:45.293Z,5.17
2019-04-26T03:56:45.502Z,4.67
2019-04-26T04:07:02.459Z,5.40
2019-04-26T04:16:48.901Z,5.13
2019-04-26T04:26:49.911Z,4.80
2019-04-26T04:36:52.888Z,5.13
2019-04-26T04:46:53.984Z,5.57
2019-04-26T04:56:53.872Z,4.40
2019-04-26T05:06:55.165Z,4.83
2019-04-26T05:16:57.197Z,6.67
2019-04-26T07:20:04.450Z,7.37
2019-04-26T07:30:05.226Z,7.53
2019-04-26T07:40:07.027Z,6.97
2019-04-26T07:50:07.705Z,7.00
2019-04-26T08:00:08.950Z,7.43
2019-04-26T08:10:10.970Z,7.60
2019-04-26T08:20:14.025Z,8.23
2019-04-26T08:30:17.032Z,7.70
2019-04-26T08:40:23.068Z,8.13
2019-04-26T08:50:17.763Z,7.63
2019-04-26T09:00:19.033Z,7.13
2019-04-26T09:10:20.311Z,8.40
2019-04-26T09:20:28.732Z,7.47
2019-04-26T09:30:33.253Z,7.12
2019-04-26T09:40:24.243Z,8.18
2019-04-26T09:50:25.501Z,7.90
2019-04-26T10:00:26.753Z,7.90
2019-04-26T10:10:31.054Z,7.85
2019-04-26T10:20:30.114Z,7.82
2019-04-26T10:30:31.396Z,7.40
2019-04-26T10:40:35.582Z,7.47
2019-04-26T10:50:34.450Z,7.25
2019-04-26T11:00:35.319Z,9.25
2019-04-26T11:10:47.875Z,8.90
2019-04-26T11:20:41.380Z,9.65
2019-04-26T11:30:39.983Z,8.60
2019-04-26T11:40:44.319Z,8.30
2019-04-26T11:50:42.542Z,9.15
2019-04-26T12:00:44.586Z,9.02
2019-04-26T12:10:46.409Z,8.63
2019-04-26T12:20:47.691Z,7.05
2019-04-26T12:30:48.974Z,8.20
2019-04-26T12:40:50.264Z,7.35
2019-04-26T12:50:53.593Z,6.97
2019-04-26T13:00:55.654Z,6.65
2019-04-26T13:10:56.945Z,6.90
2019-04-26T13:20:58.577Z,7.60
2019-04-26T13:31:02.199Z,7.65
2019-04-26T13:41:04.340Z,7.53
2019-04-26T13:51:05.699Z,6.50
2019-04-26T14:01:06.403Z,7.25
2019-04-26T14:11:07.684Z,7.20
2019-04-26T14:21:08.958Z,6.97
2019-04-26T14:31:12.178Z,5.78
2019-04-26T14:41:13.553Z,5.62
2019-04-26T14:51:16.824Z,5.82
2019-04-26T15:01:15.055Z,6.22
2019-04-26T15:11:16.317Z,5.72
2019-04-26T15:21:17.565Z,5.28
2019-04-26T15:51:34.026Z,4.63
2019-04-26T16:01:36.070Z,4.67
2019-04-26T16:11:37.430Z,4.33
2019-04-26T16:41:53.605Z,4.20
2019-04-26T16:52:02.137Z,3.80
2019-04-26T17:02:01.496Z,3.10
2019-04-26T17:32:13.880Z,3.20
2019-04-26T17:42:13.727Z,3.53
2019-04-26T17:52:17.862Z,2.50
2019-04-26T18:02:38.735Z,2.60
2019-04-26T18:12:24.782Z,1.90
2019-04-26T18:22:28.350Z,2.00
2019-04-26T18:32:28.123Z,1.50
2019-04-26T18:42:29.430Z,1.70
2019-04-26T18:52:30.728Z,2.20
2019-04-26T19:02:33.324Z,2.30
2019-04-26T19:12:34.153Z,2.13
2019-04-26T19:22:35.457Z,3.10
2019-04-26T19:32:39.652Z,3.57
2019-04-26T19:42:42.503Z,3.17
2019-04-26T19:52:45.031Z,3.30
2019-04-26T20:02:44.406Z,3.20
2019-04-26T20:12:45.701Z,4.00
2019-04-26T20:22:46.985Z,4.00
2019-04-26T20:32:48.271Z,3.60
2019-04-26T20:42:51.159Z,3.30
2019-04-26T20:52:54.018Z,3.10
2019-04-26T21:33:16.126Z,2.90
2019-04-26T21:43:17.404Z,3.10
2019-04-26T21:53:18.689Z,3.50
2019-04-26T22:13:27.734Z,2.43
2019-04-26T22:23:29.028Z,2.63
2019-04-26T22:33:30.955Z,2.37
2019-04-26T22:43:31.615Z,1.90
2019-04-26T22:53:32.909Z,1.70
2019-04-26T23:03:36.515Z,1.77
2019-04-26T23:13:37.804Z,1.30
2019-04-26T23:23:40.968Z,1.27
